createdAt,value
2019-03-13T00:02:39.331Z,18.75
2019-03-13T00:05:08.538Z,13.62
2019-03-13T00:07:36.493Z,12.70
2019-03-13T00:10:04.437Z,12.85
2019-03-13T00:12:32.405Z,19.42
2019-03-13T00:15:08.042Z,11.22
2019-03-13T00:17:36.098Z,19.62
2019-03-13T00:20:04.063Z,19.00
2019-03-13T00:22:33.022Z,16.87
2019-03-13T00:25:00.998Z,25.02
2019-03-13T00:27:28.988Z,19.02
2019-03-13T00:29:58.268Z,26.37
2019-03-13T00:32:26.362Z,26.73
2019-03-13T00:34:54.308Z,19.50
2019-03-13T00:37:22.373Z,18.45
2019-03-13T00:39:51.192Z,21.87
2019-03-13T00:42:19.274Z,15.30
2019-03-13T00:44:47.266Z,19.37
2019-03-13T00:47:15.386Z,11.55
2019-03-13T00:49:43.398Z,13.60
2019-03-13T00:52:11.378Z,10.65
2019-03-13T00:54:39.283Z,17.10
2019-03-13T00:57:07.264Z,27.52
2019-03-13T00:59:35.228Z,14.83
2019-03-13T01:02:22.006Z,13.38
2019-03-13T01:04:58.961Z,13.35
2019-03-13T01:07:27.045Z,17.77
2019-03-13T01:09:55.074Z,30.30
2019-03-13T01:12:23.055Z,18.90
2019-03-13T01:14:51.257Z,18.42
2019-03-13T01:17:20.191Z,10.05
2019-03-13T01:19:48.250Z,12.15
2019-03-13T01:22:16.338Z,28.60
2019-03-13T01:24:44.262Z,17.60
2019-03-13T01:27:12.293Z,11.40
2019-03-13T01:29:40.287Z,16.48
2019-03-13T01:32:26.153Z,12.30
2019-03-13T01:35:21.870Z,13.68
2019-03-13T01:37:49.799Z,8.95
2019-03-13T01:40:17.731Z,8.68
2019-03-13T01:42:45.732Z,9.05
2019-03-13T01:45:13.850Z,10.58
2019-03-13T01:47:41.964Z,9.83
2019-03-13T01:50:09.918Z,13.70
2019-03-13T01:52:37.893Z,9.10
2019-03-13T01:55:06.162Z,10.40
2019-03-13T01:57:34.052Z,15.28
2019-03-13T02:00:02.034Z,15.28
2019-03-13T02:02:30.010Z,9.60
2019-03-13T02:04:57.959Z,19.17
2019-03-13T02:07:26.091Z,17.67
2019-03-13T02:09:54.167Z,12.23
2019-03-13T02:12:22.257Z,11.48
2019-03-13T02:14:50.388Z,13.80
2019-03-13T02:17:19.404Z,14.58
2019-03-13T02:19:49.721Z,9.95
2019-03-13T02:22:23.280Z,12.30
2019-03-13T02:24:54.468Z,15.65
2019-03-13T02:27:22.365Z,8.80
2019-03-13T02:29:50.563Z,19.20
2019-03-13T02:32:18.708Z,14.35
2019-03-13T02:34:46.751Z,21.17
2019-03-13T02:37:14.686Z,9.90
2019-03-13T02:39:42.774Z,11.70
2019-03-13T02:42:11.603Z,17.85
2019-03-13T02:44:39.537Z,20.88
2019-03-13T02:47:07.475Z,12.63
2019-03-13T02:49:35.836Z,19.25
2019-03-13T02:52:06.234Z,25.32
2019-03-13T02:54:34.228Z,16.90
2019-03-13T02:57:02.160Z,34.55
2019-03-13T02:59:31.028Z,32.08
2019-03-13T03:02:20.880Z,37.17
2019-03-13T03:04:48.952Z,20.92
2019-03-13T03:07:16.887Z,14.38
2019-03-13T03:09:44.817Z,13.15
2019-03-13T03:12:13.727Z,14.05
2019-03-13T03:14:41.747Z,13.68
2019-03-13T03:17:15.726Z,14.90
2019-03-13T03:19:44.064Z,13.88
2019-03-13T03:22:12.017Z,12.20
2019-03-13T03:24:41.897Z,27.37
2019-03-13T03:27:09.845Z,13.78
2019-03-13T03:29:39.086Z,16.35
2019-03-13T03:32:07.458Z,15.38
2019-03-13T03:34:35.781Z,14.73
2019-03-13T03:37:09.499Z,12.98
2019-03-13T03:39:37.490Z,32.03
2019-03-13T03:42:05.377Z,22.30
2019-03-13T03:44:33.287Z,17.17
2019-03-13T03:47:02.006Z,21.55
2019-03-13T03:49:30.081Z,19.95
2019-03-13T03:51:58.070Z,25.92
2019-03-13T03:54:32.124Z,24.57
2019-03-13T03:57:00.615Z,21.17
2019-03-13T03:59:28.580Z,24.60
2019-03-13T04:01:56.534Z,75.17
2019-03-13T04:04:24.497Z,74.07
2019-03-13T04:07:01.428Z,47.13
2019-03-13T04:09:29.606Z,34.78
2019-03-13T04:11:57.682Z,46.73
2019-03-13T04:14:25.732Z,33.60
2019-03-13T04:16:55.578Z,22.07
2019-03-13T04:19:23.500Z,20.30
2019-03-13T04:21:51.519Z,28.12
2019-03-13T04:24:19.442Z,26.27
2019-03-13T04:26:47.467Z,26.05
2019-03-13T04:29:15.433Z,32.65
2019-03-13T04:31:43.454Z,27.93
2019-03-13T04:34:11.490Z,23.62
2019-03-13T04:36:39.447Z,21.73
2019-03-13T04:39:10.797Z,19.30
2019-03-13T04:41:38.758Z,24.77
2019-03-13T04:44:06.755Z,25.57
2019-03-13T04:46:34.717Z,31.23
2019-03-13T04:49:02.672Z,32.00
2019-03-13T04:51:30.773Z,35.38
2019-03-13T04:53:58.954Z,27.62
2019-03-13T04:56:26.876Z,50.98
2019-03-13T04:58:54.831Z,51.85
2019-03-13T05:01:27.439Z,57.90
2019-03-13T05:03:55.478Z,51.23
2019-03-13T05:06:23.434Z,35.70
2019-03-13T05:08:51.369Z,39.03
2019-03-13T05:11:19.545Z,34.95
2019-03-13T05:13:47.645Z,29.67
2019-03-13T05:16:15.617Z,46.92
2019-03-13T05:18:43.544Z,31.02
2019-03-13T05:21:11.471Z,31.40
2019-03-13T05:23:39.455Z,27.30
2019-03-13T05:26:07.395Z,28.62
2019-03-13T05:28:35.438Z,33.45
2019-03-13T05:31:03.826Z,27.98
2019-03-13T05:33:31.800Z,24.43
2019-03-13T05:35:59.771Z,82.47
2019-03-13T05:38:27.704Z,32.98
2019-03-13T05:40:55.644Z,42.33
2019-03-13T05:43:23.774Z,35.48
2019-03-13T05:45:51.970Z,39.53
2019-03-13T05:48:19.964Z,31.02
2019-03-13T05:50:47.922Z,61.15
2019-03-13T05:53:15.877Z,60.23
2019-03-13T05:55:44.036Z,62.25
2019-03-13T05:58:12.380Z,51.63
2019-03-13T06:00:40.332Z,46.70
2019-03-13T06:03:08.311Z,47.98
2019-03-13T06:05:36.301Z,42.33
2019-03-13T06:08:04.239Z,31.93
2019-03-13T06:10:32.208Z,26.40
2019-03-13T06:13:00.459Z,35.35
2019-03-13T06:15:28.388Z,25.25
2019-03-13T06:17:56.715Z,27.60
2019-03-13T06:20:24.739Z,22.90
2019-03-13T06:22:52.687Z,22.58
2019-03-13T06:25:20.795Z,30.05
2019-03-13T06:27:48.785Z,37.17
2019-03-13T06:30:17.432Z,45.55
2019-03-13T06:32:45.466Z,37.15
2019-03-13T06:35:13.976Z,24.52
2019-03-13T06:37:41.988Z,21.80
2019-03-13T06:40:10.067Z,34.00
2019-03-13T06:42:38.156Z,31.20
2019-03-13T06:45:06.389Z,33.45
2019-03-13T06:47:34.338Z,26.02
2019-03-13T06:50:02.282Z,35.33
2019-03-13T06:52:31.599Z,23.32
2019-03-13T06:54:59.832Z,19.80
2019-03-13T06:57:27.840Z,19.48
2019-03-13T07:00:23.453Z,28.07
2019-03-13T07:03:10.213Z,53.42
2019-03-13T07:06:05.911Z,48.38
2019-03-13T07:08:46.991Z,52.98
2019-03-13T07:11:36.533Z,56.05
2019-03-13T07:14:15.026Z,62.78
2019-03-13T07:17:13.986Z,58.98
2019-03-13T07:20:04.612Z,34.08
2019-03-13T07:22:48.408Z,41.48
2019-03-13T07:25:22.598Z,61.30
2019-03-13T07:28:03.602Z,50.30
2019-03-13T07:30:59.888Z,46.87
2019-03-13T07:33:56.088Z,71.72
2019-03-13T07:36:45.694Z,32.80
2019-03-13T07:39:20.581Z,22.37
2019-03-13T07:42:06.176Z,28.07
2019-03-13T07:45:03.815Z,37.65
2019-03-13T07:47:42.770Z,30.08
2019-03-13T07:50:22.270Z,42.10
2019-03-13T07:53:17.848Z,30.12
2019-03-13T07:56:03.314Z,31.85
2019-03-13T07:58:50.121Z,28.77
2019-03-13T08:01:35.995Z,32.05
2019-03-13T08:04:22.805Z,38.60
2019-03-13T08:07:08.470Z,31.73
2019-03-13T08:09:53.919Z,24.50
2019-03-13T08:12:40.765Z,31.57
2019-03-13T08:15:18.467Z,24.05
2019-03-13T08:18:04.108Z,25.03
2019-03-13T08:20:50.820Z,17.07
2019-03-13T08:23:30.690Z,14.60
2019-03-13T08:26:05.090Z,18.42
2019-03-13T08:29:00.938Z,17.12
2019-03-13T08:31:57.003Z,18.80
2019-03-13T08:34:33.346Z,15.25
2019-03-13T08:37:18.591Z,21.23
2019-03-13T08:40:05.357Z,20.57
2019-03-13T08:43:01.181Z,14.87
2019-03-13T08:45:49.189Z,12.85
2019-03-13T08:48:35.954Z,16.32
2019-03-13T08:51:21.484Z,15.03
2019-03-13T08:54:04.463Z,10.63
2019-03-13T08:56:51.260Z,14.07
2019-03-13T08:59:27.754Z,16.57
2019-03-13T09:02:09.732Z,7.40
2019-03-13T09:05:14.261Z,7.50
2019-03-13T09:07:59.798Z,11.53
2019-03-13T09:10:42.692Z,6.70
2019-03-13T09:13:25.288Z,10.03
2019-03-13T09:16:19.801Z,9.33
2019-03-13T09:19:19.207Z,12.37
2019-03-13T09:21:59.366Z,4.50
2019-03-13T09:24:44.588Z,10.70
2019-03-13T09:27:27.802Z,17.30
2019-03-13T09:30:14.859Z,25.27
2019-03-13T09:33:00.651Z,12.70
2019-03-13T09:35:46.024Z,6.80
2019-03-13T09:38:26.879Z,10.53
2019-03-13T09:41:11.336Z,8.97
2019-03-13T09:43:59.863Z,12.57
2019-03-13T09:46:49.418Z,10.70
2019-03-13T09:49:36.184Z,8.60
2019-03-13T09:52:23.193Z,16.27
2019-03-13T09:55:00.381Z,8.83
2019-03-13T09:57:46.355Z,6.40
2019-03-13T10:00:24.564Z,3.50
2019-03-13T10:03:09.976Z,23.40
2019-03-13T10:05:56.718Z,8.50
2019-03-13T10:08:58.554Z,13.00
2019-03-13T10:11:48.359Z,14.63
2019-03-13T10:14:30.940Z,23.67
2019-03-13T10:17:11.453Z,10.33
2019-03-13T10:19:55.856Z,8.53
2019-03-13T10:22:42.597Z,10.80
2019-03-13T10:25:29.399Z,18.07
2019-03-13T10:28:12.654Z,18.73
2019-03-13T10:30:54.284Z,26.20
2019-03-13T10:33:44.252Z,18.57
2019-03-13T10:36:31.160Z,17.73
2019-03-13T10:39:20.792Z,20.47
2019-03-13T10:42:16.934Z,15.53
2019-03-13T10:45:18.708Z,24.87
2019-03-13T10:47:52.119Z,19.53
2019-03-13T10:50:37.660Z,31.70
2019-03-13T10:53:24.560Z,35.30
2019-03-13T10:56:03.454Z,27.43
2019-03-13T10:58:50.885Z,25.30
2019-03-13T11:04:34.113Z,22.30
2019-03-13T11:07:28.550Z,24.03
2019-03-13T11:10:19.978Z,12.43
2019-03-13T11:12:54.133Z,11.73
2019-03-13T11:15:46.811Z,18.90
2019-03-13T11:18:24.957Z,19.17
2019-03-13T11:21:20.795Z,15.67
2019-03-13T11:23:55.154Z,19.27
2019-03-13T11:26:32.857Z,19.93
2019-03-13T11:29:22.370Z,13.83
2019-03-13T11:32:27.451Z,18.27
2019-03-13T11:35:13.101Z,14.45
2019-03-13T11:38:05.805Z,9.43
2019-03-13T11:40:58.543Z,10.33
2019-03-13T11:43:44.222Z,11.27
2019-03-13T11:46:38.111Z,13.58
2019-03-13T11:49:30.875Z,19.53
2019-03-13T11:52:13.149Z,17.93
2019-03-13T11:55:09.003Z,15.23
2019-03-13T11:57:55.846Z,13.90
2019-03-13T12:00:45.066Z,9.20
2019-03-13T12:03:19.611Z,15.18
2019-03-13T12:06:04.032Z,12.35
2019-03-13T14:19:28.914Z,16.87
2019-03-13T14:21:56.878Z,21.37
2019-03-13T14:24:24.853Z,25.45
2019-03-13T14:26:53.994Z,15.80
2019-03-13T14:29:22.952Z,20.37
2019-03-13T14:31:51.947Z,18.85
2019-03-13T14:34:19.895Z,26.55
2019-03-13T14:36:47.902Z,32.42
2019-03-13T14:39:16.349Z,23.77
2019-03-13T14:41:44.378Z,23.32
2019-03-13T14:44:12.397Z,16.80
2019-03-13T14:46:40.472Z,18.70
2019-03-13T14:49:08.438Z,23.38
2019-03-13T14:51:37.322Z,16.10
2019-03-13T14:54:05.257Z,14.93
2019-03-13T14:56:33.197Z,13.00
2019-03-13T14:59:02.374Z,22.87
2019-03-13T15:01:30.332Z,22.77
2019-03-13T15:03:58.349Z,21.95
2019-03-13T15:06:26.251Z,20.27
2019-03-13T15:08:54.166Z,20.17
2019-03-13T15:11:22.120Z,21.93
2019-03-13T15:13:51.083Z,20.68
2019-03-13T15:16:19.017Z,15.30
2019-03-13T15:18:46.961Z,26.75
2019-03-13T15:21:15.190Z,14.95
2019-03-13T15:23:43.161Z,17.67
2019-03-13T15:26:11.321Z,17.70
2019-03-13T15:28:39.230Z,13.85
2019-03-13T15:31:07.163Z,19.23
2019-03-13T15:33:35.197Z,17.02
2019-03-13T15:36:03.137Z,18.95
2019-03-13T15:38:32.347Z,15.78
2019-03-13T15:41:00.341Z,14.50
2019-03-13T15:43:28.292Z,10.85
2019-03-13T15:45:56.523Z,16.00
2019-03-13T15:48:24.474Z,11.53
2019-03-13T15:50:53.549Z,19.65
2019-03-13T15:53:21.532Z,14.83
2019-03-13T15:55:49.591Z,12.80
2019-03-13T15:58:17.513Z,16.73
2019-03-13T16:00:45.501Z,12.82
2019-03-13T16:03:13.378Z,16.02
2019-03-13T16:05:42.440Z,11.05
2019-03-13T16:08:10.332Z,21.37
2019-03-13T16:10:38.290Z,14.78
2019-03-13T16:13:06.666Z,17.07
2019-03-13T16:15:36.036Z,13.88
2019-03-13T16:18:04.000Z,18.25
2019-03-13T16:20:31.984Z,17.50
2019-03-13T16:23:05.753Z,13.60
2019-03-13T16:25:34.309Z,14.55
2019-03-13T16:28:02.518Z,8.25
2019-03-13T16:30:33.822Z,11.35
2019-03-13T16:33:02.011Z,18.07
2019-03-13T16:35:30.025Z,22.17
2019-03-13T16:37:58.944Z,15.90
2019-03-13T16:40:27.086Z,16.70
2019-03-13T16:42:55.182Z,16.15
2019-03-13T16:45:23.314Z,12.43
2019-03-13T16:47:51.402Z,21.30
2019-03-13T16:50:19.342Z,13.95
2019-03-13T16:52:47.280Z,22.80
2019-03-13T16:55:15.219Z,14.90
2019-03-13T16:57:44.359Z,17.42
2019-03-13T17:00:12.381Z,14.47
2019-03-13T17:02:40.307Z,17.10
2019-03-13T17:05:08.172Z,12.95
2019-03-13T17:07:36.454Z,11.70
2019-03-13T17:10:07.092Z,12.75
2019-03-13T17:12:35.058Z,14.65
2019-03-13T17:15:03.644Z,12.18
2019-03-13T17:17:31.562Z,17.73
2019-03-13T17:19:59.501Z,9.75
2019-03-13T17:22:27.476Z,11.00
2019-03-13T17:24:55.547Z,15.53
2019-03-13T17:27:24.967Z,16.85
2019-03-13T17:29:52.948Z,16.87
2019-03-13T17:32:20.978Z,13.93
2019-03-13T17:34:48.909Z,11.73
2019-03-13T17:37:17.827Z,19.23
2019-03-13T17:39:46.713Z,11.03
2019-03-13T17:42:14.600Z,22.98
2019-03-13T17:44:42.546Z,20.32
2019-03-13T17:47:11.426Z,17.67
2019-03-13T17:49:39.550Z,15.18
2019-03-13T17:52:07.688Z,19.48
2019-03-13T17:54:35.673Z,19.07
2019-03-13T17:57:03.595Z,11.83
2019-03-13T17:59:31.544Z,17.55
2019-03-13T18:02:00.077Z,22.65
2019-03-13T18:04:28.128Z,13.68
2019-03-13T18:06:56.197Z,21.07
2019-03-13T18:09:24.264Z,24.72
2019-03-13T18:11:52.867Z,33.10
2019-03-13T18:14:22.079Z,68.17
2019-03-13T18:16:50.134Z,65.83
2019-03-13T18:19:18.135Z,41.35
2019-03-13T18:21:46.048Z,36.45
2019-03-13T18:24:14.090Z,20.88
2019-03-13T18:26:42.034Z,16.60
2019-03-13T18:29:10.315Z,11.50
2019-03-13T18:31:38.296Z,20.00
2019-03-13T18:34:06.235Z,17.87
2019-03-13T18:36:34.204Z,12.78
2019-03-13T18:39:02.165Z,19.02
2019-03-13T18:41:30.124Z,17.80
2019-03-13T18:43:58.262Z,13.83
2019-03-13T18:46:26.476Z,17.42
2019-03-13T18:48:54.402Z,19.25
2019-03-13T18:51:22.532Z,18.05
2019-03-13T18:53:50.451Z,15.23
2019-03-13T18:56:18.330Z,18.70
2019-03-13T18:58:46.628Z,16.23
2019-03-13T19:01:14.755Z,14.80
2019-03-13T19:03:43.723Z,14.78
2019-03-13T19:06:11.679Z,12.80
2019-03-13T19:08:39.602Z,12.50
2019-03-13T19:11:09.338Z,9.73
2019-03-13T19:13:37.407Z,11.15
2019-03-13T19:16:06.043Z,16.07
2019-03-13T19:18:35.311Z,10.18
2019-03-13T19:21:03.199Z,32.20
2019-03-13T19:23:31.137Z,48.80
2019-03-13T19:26:01.389Z,25.75
2019-03-13T19:28:29.204Z,9.25
2019-03-13T19:30:57.405Z,10.78
2019-03-13T19:33:26.313Z,9.25
2019-03-13T19:35:55.560Z,10.35
2019-03-13T19:38:24.199Z,6.92
2019-03-13T19:40:52.160Z,10.13
2019-03-13T19:43:20.171Z,6.45
2019-03-13T19:45:48.196Z,6.95
2019-03-13T19:48:18.417Z,10.98
2019-03-13T19:50:46.051Z,9.93
2019-03-13T19:53:14.023Z,11.70
2019-03-13T19:55:41.944Z,11.10
2019-03-13T19:58:12.923Z,20.50
2019-03-13T20:00:40.900Z,15.25
2019-03-13T20:03:09.442Z,24.80
2019-03-13T20:05:45.341Z,23.80
2019-03-13T20:08:07.272Z,6.97
2019-03-13T20:10:36.193Z,17.55
2019-03-13T20:13:04.287Z,11.68
2019-03-13T20:15:32.465Z,10.13
2019-03-13T20:18:00.391Z,15.95
2019-03-13T20:20:28.318Z,10.88
2019-03-13T20:22:57.160Z,23.52
2019-03-13T20:25:25.538Z,21.52
2019-03-13T20:27:54.767Z,11.45
2019-03-13T20:30:24.449Z,11.78
2019-03-13T20:32:52.449Z,9.53
2019-03-13T20:35:20.785Z,15.72
2019-03-13T20:37:48.750Z,21.27
2019-03-13T20:40:16.717Z,21.33
2019-03-13T20:42:44.635Z,24.15
2019-03-13T20:45:14.612Z,22.77
2019-03-13T20:47:43.401Z,16.82
2019-03-13T20:50:17.384Z,11.30
2019-03-13T20:52:45.877Z,26.37
2019-03-13T20:55:17.215Z,11.78
2019-03-13T20:57:45.191Z,8.83
2019-03-13T21:00:13.099Z,9.85
2019-03-13T21:02:41.107Z,18.02
2019-03-13T21:05:09.119Z,20.85
2019-03-13T21:07:37.063Z,19.42
2019-03-13T21:10:04.979Z,12.18
2019-03-13T21:12:32.922Z,14.90
2019-03-13T21:15:02.540Z,18.32
2019-03-13T21:17:30.514Z,15.40
2019-03-13T21:19:59.110Z,17.27
2019-03-13T21:22:27.235Z,13.08
2019-03-13T21:24:55.197Z,15.15
2019-03-13T21:27:23.163Z,16.82
2019-03-13T21:29:51.052Z,23.60
2019-03-13T21:32:19.004Z,21.65
2019-03-13T21:34:46.904Z,19.10
2019-03-13T21:37:14.820Z,19.87
2019-03-13T21:39:42.954Z,20.10
2019-03-13T21:42:11.222Z,16.23
2019-03-13T21:44:39.148Z,18.05
2019-03-13T21:47:07.248Z,16.23
2019-03-13T21:49:35.503Z,14.40
2019-03-13T21:52:03.406Z,15.65
2019-03-13T21:54:31.336Z,14.53
2019-03-13T21:56:59.572Z,18.48
2019-03-13T21:59:27.542Z,11.08
2019-03-13T22:01:55.526Z,16.67
2019-03-13T22:04:24.805Z,22.58
2019-03-13T22:06:53.286Z,10.70
2019-03-13T22:09:21.338Z,16.80
2019-03-13T22:11:49.441Z,10.53
2019-03-13T22:14:19.417Z,19.65
2019-03-13T22:16:47.330Z,22.67
2019-03-13T22:19:15.322Z,17.00
2019-03-13T22:21:43.251Z,14.45
2019-03-13T22:24:11.621Z,15.35
2019-03-13T22:26:39.502Z,16.20
2019-03-13T22:29:07.849Z,7.30
2019-03-13T22:31:54.803Z,8.28
2019-03-13T22:34:22.913Z,9.33
2019-03-13T22:36:52.104Z,8.35
2019-03-13T22:39:20.088Z,9.83
2019-03-13T22:41:48.300Z,8.78
2019-03-13T22:44:35.304Z,6.55
2019-03-13T22:47:04.392Z,10.93
2019-03-13T22:49:32.341Z,6.92
2019-03-13T22:52:00.248Z,7.70
2019-03-13T22:54:32.016Z,8.55
2019-03-13T22:56:59.931Z,8.40
2019-03-13T22:59:28.931Z,10.03
2019-03-13T23:01:57.143Z,4.53
2019-03-13T23:04:25.213Z,14.98
2019-03-13T23:06:53.125Z,4.10
2019-03-13T23:09:21.039Z,9.33
2019-03-13T23:11:49.038Z,10.63
2019-03-13T23:14:17.615Z,10.95
2019-03-13T23:16:45.717Z,15.58
2019-03-13T23:19:17.249Z,25.02
2019-03-13T23:21:44.840Z,7.78
2019-03-13T23:24:14.955Z,10.00
2019-03-13T23:26:43.127Z,5.25
2019-03-13T23:29:11.052Z,3.22
2019-03-13T23:31:39.074Z,9.18
2019-03-13T23:34:06.967Z,7.30
2019-03-13T23:36:34.916Z,3.90
2019-03-13T23:39:05.917Z,3.65
2019-03-13T23:41:33.962Z,5.87
2019-03-13T23:44:01.991Z,5.28
2019-03-13T23:46:29.973Z,3.35
2019-03-13T23:48:58.240Z,4.95
2019-03-13T23:51:26.119Z,3.02
2019-03-13T23:53:57.266Z,7.15
2019-03-13T23:56:25.258Z,7.17
2019-03-13T23:58:53.249Z,10.93
